sensor_id;sensor_type;location;lat;lon;timestamp;temperature;humidity
73683;DHT22;72538;48.146;11.740;2023-09-07T00:00:30;14.30;99.90
73683;DHT22;72538;48.146;11.740;2023-09-07T00:02:56;14.30;99.90
73683;DHT22;72538;48.146;11.740;2023-09-07T00:05:21;14.30;99.90
73683;DHT22;72538;48.146;11.740;2023-09-07T00:07:47;14.20;99.90
73683;DHT22;72538;48.146;11.740;2023-09-07T00:10:13;14.20;99.90
73683;DHT22;72538;48.146;11.740;2023-09-07T00:12:39;14.20;99.90
73683;DHT22;72538;48.146;11.740;2023-09-07T00:15:06;14.20;99.90
73683;DHT22;72538;48.146;11.740;2023-09-07T00:17:32;14.20;99.90
73683;DHT22;72538;48.146;11.740;2023-09-07T00:19:58;14.20;99.90
73683;DHT22;72538;48.146;11.740;2023-09-07T00:22:24;14.20;99.90
73683;DHT22;72538;48.146;11.740;2023-09-07T00:24:51;14.20;99.90
73683;DHT22;72538;48.146;11.740;2023-09-07T00:27:17;14.20;99.90
73683;DHT22;72538;48.146;11.740;2023-09-07T00:29:42;14.10;99.90
73683;DHT22;72538;48.146;11.740;2023-09-07T00:32:08;14.10;99.90
73683;DHT22;72538;48.146;11.740;2023-09-07T00:34:34;14.10;99.90
73683;DHT22;72538;48.146;11.740;2023-09-07T00:37:00;14.10;99.90
73683;DHT22;72538;48.146;11.740;2023-09-07T00:39:26;14.10;99.90
73683;DHT22;72538;48.146;11.740;2023-09-07T00:41:52;14.10;99.90
73683;DHT22;72538;48.146;11.740;2023-09-07T00:44:18;14.20;99.90
73683;DHT22;72538;48.146;11.740;2023-09-07T00:46:44;14.30;99.90
73683;DHT22;72538;48.146;11.740;2023-09-07T00:49:14;14.40;99.90
73683;DHT22;72538;48.146;11.740;2023-09-07T00:51:40;14.50;99.90
73683;DHT22;72538;48.146;11.740;2023-09-07T00:54:06;14.60;99.90
73683;DHT22;72538;48.146;11.740;2023-09-07T00:56:32;14.60;99.90
73683;DHT22;72538;48.146;11.740;2023-09-07T00:58:57;14.50;99.90
73683;DHT22;72538;48.146;11.740;2023-09-07T01:01:25;14.50;99.90
73683;DHT22;72538;48.146;11.740;2023-09-07T01:03:51;14.50;99.90
73683;DHT22;72538;48.146;11.740;2023-09-07T01:06:24;14.30;99.90
73683;DHT22;72538;48.146;11.740;2023-09-07T01:08:51;14.30;99.90
73683;DHT22;72538;48.146;11.740;2023-09-07T01:11:19;14.30;99.90
73683;DHT22;72538;48.146;11.740;2023-09-07T01:13:46;14.20;99.90
73683;DHT22;72538;48.146;11.740;2023-09-07T01:16:13;14.20;99.90
73683;DHT22;72538;48.146;11.740;2023-09-07T01:18:39;14.10;99.90
73683;DHT22;72538;48.146;11.740;2023-09-07T01:21:08;13.90;99.90
73683;DHT22;72538;48.146;11.740;2023-09-07T01:23:36;13.90;99.90
73683;DHT22;72538;48.146;11.740;2023-09-07T01:26:05;13.70;99.90
73683;DHT22;72538;48.146;11.740;2023-09-07T01:28:31;13.70;99.90
73683;DHT22;72538;48.146;11.740;2023-09-07T01:30:57;13.60;99.90
73683;DHT22;72538;48.146;11.740;2023-09-07T01:33:23;13.50;99.90
73683;DHT22;72538;48.146;11.740;2023-09-07T01:38:42;13.30;99.90
73683;DHT22;72538;48.146;11.740;2023-09-07T01:41:08;13.20;99.90
73683;DHT22;72538;48.146;11.740;2023-09-07T01:43:35;13.20;99.90
73683;DHT22;72538;48.146;11.740;2023-09-07T01:46:01;13.20;99.90
73683;DHT22;72538;48.146;11.740;2023-09-07T01:48:27;13.20;99.90
73683;DHT22;72538;48.146;11.740;2023-09-07T01:50:53;13.10;99.90
73683;DHT22;72538;48.146;11.740;2023-09-07T01:53:20;13.10;99.90
73683;DHT22;72538;48.146;11.740;2023-09-07T01:55:46;13.00;99.90
73683;DHT22;72538;48.146;11.740;2023-09-07T01:58:13;12.90;99.90
73683;DHT22;72538;48.146;11.740;2023-09-07T02:00:39;12.90;99.90
73683;DHT22;72538;48.146;11.740;2023-09-07T02:03:06;12.80;99.90
73683;DHT22;72538;48.146;11.740;2023-09-07T02:05:32;12.70;99.90
73683;DHT22;72538;48.146;11.740;2023-09-07T02:07:58;12.60;99.90
73683;DHT22;72538;48.146;11.740;2023-09-07T02:10:24;12.60;99.90
73683;DHT22;72538;48.146;11.740;2023-09-07T02:12:50;12.60;99.90
73683;DHT22;72538;48.146;11.740;2023-09-07T02:15:15;12.70;99.90
73683;DHT22;72538;48.146;11.740;2023-09-07T02:17:41;12.70;99.90
73683;DHT22;72538;48.146;11.740;2023-09-07T02:20:10;12.70;99.90
73683;DHT22;72538;48.146;11.740;2023-09-07T02:22:36;12.70;99.90
73683;DHT22;72538;48.146;11.740;2023-09-07T02:25:02;12.60;99.90
73683;DHT22;72538;48.146;11.740;2023-09-07T02:27:31;12.60;99.90
73683;DHT22;72538;48.146;11.740;2023-09-07T02:29:57;12.60;99.90
73683;DHT22;72538;48.146;11.740;2023-09-07T02:32:23;12.50;99.90
73683;DHT22;72538;48.146;11.740;2023-09-07T02:34:49;12.50;99.90
73683;DHT22;72538;48.146;11.740;2023-09-07T02:37:15;12.50;99.90
73683;DHT22;72538;48.146;11.740;2023-09-07T02:39:42;12.50;99.90
73683;DHT22;72538;48.146;11.740;2023-09-07T02:42:08;12.40;99.90
73683;DHT22;72538;48.146;11.740;2023-09-07T02:44:34;12.40;99.90
73683;DHT22;72538;48.146;11.740;2023-09-07T02:47:01;12.30;99.90
73683;DHT22;72538;48.146;11.740;2023-09-07T02:49:27;12.30;99.90
73683;DHT22;72538;48.146;11.740;2023-09-07T02:51:53;12.20;99.90
73683;DHT22;72538;48.146;11.740;2023-09-07T02:54:18;12.20;99.90
73683;DHT22;72538;48.146;11.740;2023-09-07T02:56:45;12.10;99.90
73683;DHT22;72538;48.146;11.740;2023-09-07T02:59:10;12.10;99.90
73683;DHT22;72538;48.146;11.740;2023-09-07T03:01:38;12.10;99.90
73683;DHT22;72538;48.146;11.740;2023-09-07T03:04:05;12.20;99.90
73683;DHT22;72538;48.146;11.740;2023-09-07T03:06:31;12.20;99.90
73683;DHT22;72538;48.146;11.740;2023-09-07T03:08:57;12.20;99.90
73683;DHT22;72538;48.146;11.740;2023-09-07T03:11:23;12.20;99.90
73683;DHT22;72538;48.146;11.740;2023-09-07T03:13:49;12.10;99.90
73683;DHT22;72538;48.146;11.740;2023-09-07T03:16:14;12.10;99.90
73683;DHT22;72538;48.146;11.740;2023-09-07T03:18:40;12.10;99.90
73683;DHT22;72538;48.146;11.740;2023-09-07T03:21:06;12.00;99.90
73683;DHT22;72538;48.146;11.740;2023-09-07T03:23:32;12.00;99.90
73683;DHT22;72538;48.146;11.740;2023-09-07T03:25:59;12.10;99.90
73683;DHT22;72538;48.146;11.740;2023-09-07T03:28:26;12.00;99.90
73683;DHT22;72538;48.146;11.740;2023-09-07T03:30:53;12.00;99.90
73683;DHT22;72538;48.146;11.740;2023-09-07T03:33:19;12.00;99.90
73683;DHT22;72538;48.146;11.740;2023-09-07T03:35:45;12.00;99.90
73683;DHT22;72538;48.146;11.740;2023-09-07T03:38:11;12.00;99.90
73683;DHT22;72538;48.146;11.740;2023-09-07T03:40:36;11.90;99.90
73683;DHT22;72538;48.146;11.740;2023-09-07T03:43:03;11.90;99.90
73683;DHT22;72538;48.146;11.740;2023-09-07T03:45:29;11.90;99.90
73683;DHT22;72538;48.146;11.740;2023-09-07T03:47:56;11.80;99.90
73683;DHT22;72538;48.146;11.740;2023-09-07T03:50:22;11.90;99.90
73683;DHT22;72538;48.146;11.740;2023-09-07T03:52:47;12.00;99.90
73683;DHT22;72538;48.146;11.740;2023-09-07T03:55:14;12.00;99.90
73683;DHT22;72538;48.146;11.740;2023-09-07T03:57:39;11.90;99.90
73683;DHT22;72538;48.146;11.740;2023-09-07T04:00:07;11.90;99.90
73683;DHT22;72538;48.146;11.740;2023-09-07T04:02:34;11.80;99.90
73683;DHT22;72538;48.146;11.740;2023-09-07T04:05:00;11.80;99.90
73683;DHT22;72538;48.146;11.740;2023-09-07T04:07:31;11.80;99.90
73683;DHT22;72538;48.146;11.740;2023-09-07T04:09:57;11.80;99.90
73683;DHT22;72538;48.146;11.740;2023-09-07T04:12:22;11.90;99.90
73683;DHT22;72538;48.146;11.740;2023-09-07T04:14:48;11.90;99.90
73683;DHT22;72538;48.146;11.740;2023-09-07T04:17:14;11.90;99.90
73683;DHT22;72538;48.146;11.740;2023-09-07T04:19:40;11.80;99.90
73683;DHT22;72538;48.146;11.740;2023-09-07T04:22:06;11.80;99.90
73683;DHT22;72538;48.146;11.740;2023-09-07T04:24:32;11.70;99.90
73683;DHT22;72538;48.146;11.740;2023-09-07T04:27:00;11.60;99.90
73683;DHT22;72538;48.146;11.740;2023-09-07T04:29:29;11.70;99.90
73683;DHT22;72538;48.146;11.740;2023-09-07T04:31:55;11.70;99.90
73683;DHT22;72538;48.146;11.740;2023-09-07T04:34:22;11.70;99.90
73683;DHT22;72538;48.146;11.740;2023-09-07T04:36:48;11.60;99.90
73683;DHT22;72538;48.146;11.740;2023-09-07T04:39:14;11.60;99.90
73683;DHT22;72538;48.146;11.740;2023-09-07T04:41:40;11.60;99.90
73683;DHT22;72538;48.146;11.740;2023-09-07T04:44:07;11.60;99.90
73683;DHT22;72538;48.146;11.740;2023-09-07T04:46:33;11.70;99.90
73683;DHT22;72538;48.146;11.740;2023-09-07T04:48:59;11.60;99.90
73683;DHT22;72538;48.146;11.740;2023-09-07T04:51:24;11.60;99.90
73683;DHT22;72538;48.146;11.740;2023-09-07T04:53:51;11.60;99.90
73683;DHT22;72538;48.146;11.740;2023-09-07T04:56:17;11.60;99.90
73683;DHT22;72538;48.146;11.740;2023-09-07T04:58:43;11.80;99.90
73683;DHT22;72538;48.146;11.740;2023-09-07T05:01:10;12.00;99.90
73683;DHT22;72538;48.146;11.740;2023-09-07T05:03:36;12.00;99.90
73683;DHT22;72538;48.146;11.740;2023-09-07T05:06:04;12.00;99.90
73683;DHT22;72538;48.146;11.740;2023-09-07T05:08:30;12.00;99.90
73683;DHT22;72538;48.146;11.740;2023-09-07T05:10:59;12.00;99.90
73683;DHT22;72538;48.146;11.740;2023-09-07T05:13:25;11.90;99.90
73683;DHT22;72538;48.146;11.740;2023-09-07T05:15:53;12.00;99.90
73683;DHT22;72538;48.146;11.740;2023-09-07T05:18:19;12.10;99.90
73683;DHT22;72538;48.146;11.740;2023-09-07T05:20:45;12.30;99.90
73683;DHT22;72538;48.146;11.740;2023-09-07T05:23:12;12.40;99.90
73683;DHT22;72538;48.146;11.740;2023-09-07T05:25:49;12.50;99.90
73683;DHT22;72538;48.146;11.740;2023-09-07T05:28:19;12.40;99.90
73683;DHT22;72538;48.146;11.740;2023-09-07T05:30:45;12.50;99.90
73683;DHT22;72538;48.146;11.740;2023-09-07T05:33:13;12.50;99.90
73683;DHT22;72538;48.146;11.740;2023-09-07T05:35:39;12.50;99.90
73683;DHT22;72538;48.146;11.740;2023-09-07T05:38:06;12.50;99.90
73683;DHT22;72538;48.146;11.740;2023-09-07T05:40:36;12.70;99.90
73683;DHT22;72538;48.146;11.740;2023-09-07T05:43:02;12.80;99.90
73683;DHT22;72538;48.146;11.740;2023-09-07T05:45:30;13.00;99.90
73683;DHT22;72538;48.146;11.740;2023-09-07T05:47:57;13.00;99.90
73683;DHT22;72538;48.146;11.740;2023-09-07T05:50:23;13.10;99.90
73683;DHT22;72538;48.146;11.740;2023-09-07T05:52:49;13.30;99.90
73683;DHT22;72538;48.146;11.740;2023-09-07T05:55:15;13.40;99.90
73683;DHT22;72538;48.146;11.740;2023-09-07T05:57:41;13.50;99.90
73683;DHT22;72538;48.146;11.740;2023-09-07T06:00:08;13.70;99.90
73683;DHT22;72538;48.146;11.740;2023-09-07T06:02:34;13.70;99.90
73683;DHT22;72538;48.146;11.740;2023-09-07T06:05:00;13.80;99.90
73683;DHT22;72538;48.146;11.740;2023-09-07T06:07:25;13.80;99.90
73683;DHT22;72538;48.146;11.740;2023-09-07T06:09:51;13.90;99.90
73683;DHT22;72538;48.146;11.740;2023-09-07T06:12:17;13.90;99.90
73683;DHT22;72538;48.146;11.740;2023-09-07T06:14:43;14.00;99.90
73683;DHT22;72538;48.146;11.740;2023-09-07T06:17:09;14.10;99.90
73683;DHT22;72538;48.146;11.740;2023-09-07T06:19:36;14.30;99.90
73683;DHT22;72538;48.146;11.740;2023-09-07T06:22:02;14.40;99.90
73683;DHT22;72538;48.146;11.740;2023-09-07T06:24:28;14.60;99.90
73683;DHT22;72538;48.146;11.740;2023-09-07T06:26:53;14.90;99.90
73683;DHT22;72538;48.146;11.740;2023-09-07T06:29:19;15.00;99.90
73683;DHT22;72538;48.146;11.740;2023-09-07T06:31:45;15.10;99.90
73683;DHT22;72538;48.146;11.740;2023-09-07T06:34:11;15.20;99.90
73683;DHT22;72538;48.146;11.740;2023-09-07T06:36:36;15.30;99.90
73683;DHT22;72538;48.146;11.740;2023-09-07T06:39:02;15.40;99.90
73683;DHT22;72538;48.146;11.740;2023-09-07T06:41:32;15.60;99.90
73683;DHT22;72538;48.146;11.740;2023-09-07T06:43:58;15.80;99.90
73683;DHT22;72538;48.146;11.740;2023-09-07T06:46:24;16.00;99.90
73683;DHT22;72538;48.146;11.740;2023-09-07T06:48:50;16.10;99.90
73683;DHT22;72538;48.146;11.740;2023-09-07T06:51:15;16.40;99.90
73683;DHT22;72538;48.146;11.740;2023-09-07T06:53:41;16.90;99.90
73683;DHT22;72538;48.146;11.740;2023-09-07T06:56:07;18.40;99.90
73683;DHT22;72538;48.146;11.740;2023-09-07T06:58:33;20.60;99.90
73683;DHT22;72538;48.146;11.740;2023-09-07T07:01:00;22.30;95.50
73683;DHT22;72538;48.146;11.740;2023-09-07T07:03:28;23.40;92.60
73683;DHT22;72538;48.146;11.740;2023-09-07T07:05:54;24.40;87.50
73683;DHT22;72538;48.146;11.740;2023-09-07T07:08:20;25.20;83.10
73683;DHT22;72538;48.146;11.740;2023-09-07T07:10:46;25.90;77.90
73683;DHT22;72538;48.146;11.740;2023-09-07T07:13:12;26.60;74.40
73683;DHT22;72538;48.146;11.740;2023-09-07T07:15:38;26.80;72.00
73683;DHT22;72538;48.146;11.740;2023-09-07T07:18:04;27.70;67.60
73683;DHT22;72538;48.146;11.740;2023-09-07T07:20:38;27.60;66.80
73683;DHT22;72538;48.146;11.740;2023-09-07T07:23:04;27.60;67.60
73683;DHT22;72538;48.146;11.740;2023-09-07T07:25:32;27.90;67.90
73683;DHT22;72538;48.146;11.740;2023-09-07T07:28:01;27.90;66.50
73683;DHT22;72538;48.146;11.740;2023-09-07T07:30:29;29.30;61.40
73683;DHT22;72538;48.146;11.740;2023-09-07T07:32:56;30.50;56.80
73683;DHT22;72538;48.146;11.740;2023-09-07T07:35:22;30.60;54.10
73683;DHT22;72538;48.146;11.740;2023-09-07T07:37:49;31.70;53.20
73683;DHT22;72538;48.146;11.740;2023-09-07T07:40:15;32.20;50.30
73683;DHT22;72538;48.146;11.740;2023-09-07T07:42:41;32.90;48.40
73683;DHT22;72538;48.146;11.740;2023-09-07T07:45:08;32.50;48.80
73683;DHT22;72538;48.146;11.740;2023-09-07T07:47:34;32.30;48.50
73683;DHT22;72538;48.146;11.740;2023-09-07T07:50:00;32.60;47.50
73683;DHT22;72538;48.146;11.740;2023-09-07T07:52:25;31.90;48.20
73683;DHT22;72538;48.146;11.740;2023-09-07T07:54:53;32.00;48.50
73683;DHT22;72538;48.146;11.740;2023-09-07T07:57:19;32.70;48.00
73683;DHT22;72538;48.146;11.740;2023-09-07T07:59:44;33.20;45.80
73683;DHT22;72538;48.146;11.740;2023-09-07T08:02:10;33.20;46.10
73683;DHT22;72538;48.146;11.740;2023-09-07T08:04:36;33.20;44.60
73683;DHT22;72538;48.146;11.740;2023-09-07T08:07:02;32.20;47.40
73683;DHT22;72538;48.146;11.740;2023-09-07T08:09:32;32.60;46.90
73683;DHT22;72538;48.146;11.740;2023-09-07T08:11:58;33.80;44.90
73683;DHT22;72538;48.146;11.740;2023-09-07T08:14:25;34.40;43.70
73683;DHT22;72538;48.146;11.740;2023-09-07T08:16:53;34.50;42.90
73683;DHT22;72538;48.146;11.740;2023-09-07T08:19:19;34.80;42.00
73683;DHT22;72538;48.146;11.740;2023-09-07T08:21:45;35.30;41.90
73683;DHT22;72538;48.146;11.740;2023-09-07T08:24:12;35.30;41.60
73683;DHT22;72538;48.146;11.740;2023-09-07T08:26:38;36.50;39.90
73683;DHT22;72538;48.146;11.740;2023-09-07T08:29:05;36.50;39.00
73683;DHT22;72538;48.146;11.740;2023-09-07T08:31:32;36.90;38.70
73683;DHT22;72538;48.146;11.740;2023-09-07T08:34:00;37.70;37.90
73683;DHT22;72538;48.146;11.740;2023-09-07T08:36:28;38.10;36.80
73683;DHT22;72538;48.146;11.740;2023-09-07T08:38:55;36.60;37.90
73683;DHT22;72538;48.146;11.740;2023-09-07T08:41:21;36.70;38.70
73683;DHT22;72538;48.146;11.740;2023-09-07T08:43:49;36.80;38.60
73683;DHT22;72538;48.146;11.740;2023-09-07T08:46:20;36.30;39.60
73683;DHT22;72538;48.146;11.740;2023-09-07T08:48:53;36.30;39.60
73683;DHT22;72538;48.146;11.740;2023-09-07T08:51:18;36.00;39.30
73683;DHT22;72538;48.146;11.740;2023-09-07T08:53:44;35.90;38.60
73683;DHT22;72538;48.146;11.740;2023-09-07T08:56:12;35.70;39.10
73683;DHT22;72538;48.146;11.740;2023-09-07T08:58:39;35.30;40.80
73683;DHT22;72538;48.146;11.740;2023-09-07T09:01:07;35.20;40.00
73683;DHT22;72538;48.146;11.740;2023-09-07T09:03:35;35.00;42.00
73683;DHT22;72538;48.146;11.740;2023-09-07T09:06:01;36.00;39.00
73683;DHT22;72538;48.146;11.740;2023-09-07T09:08:27;35.50;39.80
73683;DHT22;72538;48.146;11.740;2023-09-07T09:11:01;36.10;39.50
73683;DHT22;72538;48.146;11.740;2023-09-07T09:13:30;36.90;38.40
73683;DHT22;72538;48.146;11.740;2023-09-07T09:15:59;36.80;39.00
73683;DHT22;72538;48.146;11.740;2023-09-07T09:18:25;36.50;39.10
73683;DHT22;72538;48.146;11.740;2023-09-07T09:20:55;36.80;38.60
73683;DHT22;72538;48.146;11.740;2023-09-07T09:23:21;36.80;38.40
73683;DHT22;72538;48.146;11.740;2023-09-07T09:25:48;37.00;38.80
73683;DHT22;72538;48.146;11.740;2023-09-07T09:28:14;36.60;38.70
73683;DHT22;72538;48.146;11.740;2023-09-07T09:30:41;37.70;39.80
73683;DHT22;72538;48.146;11.740;2023-09-07T09:33:09;38.50;36.60
73683;DHT22;72538;48.146;11.740;2023-09-07T09:35:37;38.30;36.60
73683;DHT22;72538;48.146;11.740;2023-09-07T09:38:04;38.50;36.60
73683;DHT22;72538;48.146;11.740;2023-09-07T09:40:31;38.10;36.00
73683;DHT22;72538;48.146;11.740;2023-09-07T09:43:02;37.90;37.10
73683;DHT22;72538;48.146;11.740;2023-09-07T09:45:29;37.40;37.00
73683;DHT22;72538;48.146;11.740;2023-09-07T09:47:57;36.70;37.50
73683;DHT22;72538;48.146;11.740;2023-09-07T09:50:26;36.30;38.90
73683;DHT22;72538;48.146;11.740;2023-09-07T09:52:52;36.30;39.70
73683;DHT22;72538;48.146;11.740;2023-09-07T09:55:19;36.50;39.20
73683;DHT22;72538;48.146;11.740;2023-09-07T09:57:45;36.50;39.40
73683;DHT22;72538;48.146;11.740;2023-09-07T10:00:12;36.80;38.50
73683;DHT22;72538;48.146;11.740;2023-09-07T10:03:04;37.80;37.90
73683;DHT22;72538;48.146;11.740;2023-09-07T10:05:28;36.60;38.10
73683;DHT22;72538;48.146;11.740;2023-09-07T10:08:00;36.30;40.20
73683;DHT22;72538;48.146;11.740;2023-09-07T10:10:31;37.10;39.60
73683;DHT22;72538;48.146;11.740;2023-09-07T10:12:56;37.50;37.50
73683;DHT22;72538;48.146;11.740;2023-09-07T10:15:23;37.60;37.60
73683;DHT22;72538;48.146;11.740;2023-09-07T10:17:50;38.30;37.40
73683;DHT22;72538;48.146;11.740;2023-09-07T10:20:19;38.80;36.70
73683;DHT22;72538;48.146;11.740;2023-09-07T10:22:47;38.60;36.30
73683;DHT22;72538;48.146;11.740;2023-09-07T10:25:21;39.60;36.00
73683;DHT22;72538;48.146;11.740;2023-09-07T10:27:47;41.30;33.60
73683;DHT22;72538;48.146;11.740;2023-09-07T10:30:14;41.30;33.00
73683;DHT22;72538;48.146;11.740;2023-09-07T10:32:42;40.60;33.50
73683;DHT22;72538;48.146;11.740;2023-09-07T10:35:15;40.00;34.10
73683;DHT22;72538;48.146;11.740;2023-09-07T10:37:45;40.20;34.80
73683;DHT22;72538;48.146;11.740;2023-09-07T10:40:12;40.90;34.30
73683;DHT22;72538;48.146;11.740;2023-09-07T10:42:40;40.90;34.60
73683;DHT22;72538;48.146;11.740;2023-09-07T10:45:14;42.60;32.80
73683;DHT22;72538;48.146;11.740;2023-09-07T10:47:43;42.20;32.50
73683;DHT22;72538;48.146;11.740;2023-09-07T10:50:11;41.70;33.00
73683;DHT22;72538;48.146;11.740;2023-09-07T10:52:39;40.20;33.90
73683;DHT22;72538;48.146;11.740;2023-09-07T10:55:06;38.80;36.40
73683;DHT22;72538;48.146;11.740;2023-09-07T10:57:41;38.30;35.30
73683;DHT22;72538;48.146;11.740;2023-09-07T11:00:03;37.80;37.10
73683;DHT22;72538;48.146;11.740;2023-09-07T11:02:29;37.60;38.80
73683;DHT22;72538;48.146;11.740;2023-09-07T11:04:55;36.80;39.80
73683;DHT22;72538;48.146;11.740;2023-09-07T11:07:21;36.70;39.70
73683;DHT22;72538;48.146;11.740;2023-09-07T11:09:51;36.90;38.60
73683;DHT22;72538;48.146;11.740;2023-09-07T11:12:16;36.20;39.50
73683;DHT22;72538;48.146;11.740;2023-09-07T11:14:47;35.50;40.50
73683;DHT22;72538;48.146;11.740;2023-09-07T11:17:13;33.90;42.40
73683;DHT22;72538;48.146;11.740;2023-09-07T11:19:40;31.60;47.60
73683;DHT22;72538;48.146;11.740;2023-09-07T11:22:11;30.80;50.00
73683;DHT22;72538;48.146;11.740;2023-09-07T11:24:36;29.80;51.40
73683;DHT22;72538;48.146;11.740;2023-09-07T11:27:02;29.30;52.20
73683;DHT22;72538;48.146;11.740;2023-09-07T11:29:33;29.00;54.60
73683;DHT22;72538;48.146;11.740;2023-09-07T11:32:08;28.60;55.80
73683;DHT22;72538;48.146;11.740;2023-09-07T11:34:34;28.40;55.40
73683;DHT22;72538;48.146;11.740;2023-09-07T11:37:02;28.70;54.80
73683;DHT22;72538;48.146;11.740;2023-09-07T11:39:29;28.40;57.30
73683;DHT22;72538;48.146;11.740;2023-09-07T11:41:54;28.50;56.60
73683;DHT22;72538;48.146;11.740;2023-09-07T11:44:20;28.50;57.20
73683;DHT22;72538;48.146;11.740;2023-09-07T11:46:46;28.30;57.00
73683;DHT22;72538;48.146;11.740;2023-09-07T11:49:12;28.20;56.30
73683;DHT22;72538;48.146;11.740;2023-09-07T11:51:39;28.30;59.50
73683;DHT22;72538;48.146;11.740;2023-09-07T11:54:05;28.30;57.00
73683;DHT22;72538;48.146;11.740;2023-09-07T11:56:31;28.00;56.60
73683;DHT22;72538;48.146;11.740;2023-09-07T11:58:57;27.80;59.10
73683;DHT22;72538;48.146;11.740;2023-09-07T12:01:23;27.40;57.90
73683;DHT22;72538;48.146;11.740;2023-09-07T12:03:48;27.60;59.30
73683;DHT22;72538;48.146;11.740;2023-09-07T12:06:14;27.70;58.70
73683;DHT22;72538;48.146;11.740;2023-09-07T12:08:42;27.50;59.10
73683;DHT22;72538;48.146;11.740;2023-09-07T12:11:09;27.00;60.20
73683;DHT22;72538;48.146;11.740;2023-09-07T12:13:35;26.80;59.40
73683;DHT22;72538;48.146;11.740;2023-09-07T12:16:01;26.80;60.90
73683;DHT22;72538;48.146;11.740;2023-09-07T12:18:27;27.00;60.70
73683;DHT22;72538;48.146;11.740;2023-09-07T12:20:53;27.20;59.90
73683;DHT22;72538;48.146;11.740;2023-09-07T12:23:19;27.20;60.10
73683;DHT22;72538;48.146;11.740;2023-09-07T12:25:45;27.50;59.50
73683;DHT22;72538;48.146;11.740;2023-09-07T12:28:13;27.50;59.50
73683;DHT22;72538;48.146;11.740;2023-09-07T12:30:38;27.40;59.60
73683;DHT22;72538;48.146;11.740;2023-09-07T12:33:04;27.40;59.90
73683;DHT22;72538;48.146;11.740;2023-09-07T12:35:30;27.30;58.70
73683;DHT22;72538;48.146;11.740;2023-09-07T12:37:55;27.00;59.10
73683;DHT22;72538;48.146;11.740;2023-09-07T12:40:23;26.90;60.90
73683;DHT22;72538;48.146;11.740;2023-09-07T12:42:48;27.20;61.00
73683;DHT22;72538;48.146;11.740;2023-09-07T12:45:14;27.20;60.50
73683;DHT22;72538;48.146;11.740;2023-09-07T12:47:40;27.40;60.60
73683;DHT22;72538;48.146;11.740;2023-09-07T12:50:07;27.90;60.10
73683;DHT22;72538;48.146;11.740;2023-09-07T12:52:34;27.80;58.20
73683;DHT22;72538;48.146;11.740;2023-09-07T12:55:04;27.80;59.50
73683;DHT22;72538;48.146;11.740;2023-09-07T12:57:30;27.90;59.40
73683;DHT22;72538;48.146;11.740;2023-09-07T12:59:56;27.80;59.00
73683;DHT22;72538;48.146;11.740;2023-09-07T13:02:22;27.50;58.30
73683;DHT22;72538;48.146;11.740;2023-09-07T13:04:48;27.20;60.50
73683;DHT22;72538;48.146;11.740;2023-09-07T13:07:13;27.20;61.30
73683;DHT22;72538;48.146;11.740;2023-09-07T13:09:39;27.20;59.40
73683;DHT22;72538;48.146;11.740;2023-09-07T13:12:06;27.10;59.50
73683;DHT22;72538;48.146;11.740;2023-09-07T13:14:32;27.40;59.20
73683;DHT22;72538;48.146;11.740;2023-09-07T13:16:58;27.20;58.90
73683;DHT22;72538;48.146;11.740;2023-09-07T13:19:23;27.20;59.30
73683;DHT22;72538;48.146;11.740;2023-09-07T13:21:49;27.60;59.50
73683;DHT22;72538;48.146;11.740;2023-09-07T13:24:15;27.30;58.00
73683;DHT22;72538;48.146;11.740;2023-09-07T13:26:41;27.20;57.60
73683;DHT22;72538;48.146;11.740;2023-09-07T13:29:07;26.80;58.60
73683;DHT22;72538;48.146;11.740;2023-09-07T13:31:32;26.80;58.90
73683;DHT22;72538;48.146;11.740;2023-09-07T13:33:58;26.80;59.00
73683;DHT22;72538;48.146;11.740;2023-09-07T13:36:24;26.80;60.80
73683;DHT22;72538;48.146;11.740;2023-09-07T13:38:50;26.90;59.60
73683;DHT22;72538;48.146;11.740;2023-09-07T13:41:15;26.90;60.00
73683;DHT22;72538;48.146;11.740;2023-09-07T13:43:41;26.90;59.70
73683;DHT22;72538;48.146;11.740;2023-09-07T13:46:07;26.70;58.60
73683;DHT22;72538;48.146;11.740;2023-09-07T13:48:33;26.80;58.60
73683;DHT22;72538;48.146;11.740;2023-09-07T13:50:59;26.70;58.50
73683;DHT22;72538;48.146;11.740;2023-09-07T13:53:24;26.80;58.40
73683;DHT22;72538;48.146;11.740;2023-09-07T13:55:50;26.90;59.10
73683;DHT22;72538;48.146;11.740;2023-09-07T13:58:16;26.70;56.70
73683;DHT22;72538;48.146;11.740;2023-09-07T14:00:42;26.60;57.20
73683;DHT22;72538;48.146;11.740;2023-09-07T14:03:08;26.60;58.70
73683;DHT22;72538;48.146;11.740;2023-09-07T14:05:33;26.50;58.20
73683;DHT22;72538;48.146;11.740;2023-09-07T14:07:59;26.40;58.20
73683;DHT22;72538;48.146;11.740;2023-09-07T14:10:25;26.30;58.50
73683;DHT22;72538;48.146;11.740;2023-09-07T14:12:51;26.20;57.80
73683;DHT22;72538;48.146;11.740;2023-09-07T14:15:16;26.10;58.80
73683;DHT22;72538;48.146;11.740;2023-09-07T14:17:42;26.00;58.70
73683;DHT22;72538;48.146;11.740;2023-09-07T14:20:09;26.00;59.40
73683;DHT22;72538;48.146;11.740;2023-09-07T14:22:35;25.90;58.90
73683;DHT22;72538;48.146;11.740;2023-09-07T14:25:01;25.80;58.00
73683;DHT22;72538;48.146;11.740;2023-09-07T14:27:26;25.70;58.80
73683;DHT22;72538;48.146;11.740;2023-09-07T14:29:52;25.50;59.60
73683;DHT22;72538;48.146;11.740;2023-09-07T14:32:18;25.60;60.10
73683;DHT22;72538;48.146;11.740;2023-09-07T14:34:43;25.80;59.80
73683;DHT22;72538;48.146;11.740;2023-09-07T14:37:10;25.70;59.70
73683;DHT22;72538;48.146;11.740;2023-09-07T14:39:35;25.70;59.20
73683;DHT22;72538;48.146;11.740;2023-09-07T14:42:01;25.60;60.00
73683;DHT22;72538;48.146;11.740;2023-09-07T14:44:27;25.60;60.60
73683;DHT22;72538;48.146;11.740;2023-09-07T14:46:53;25.60;61.60
73683;DHT22;72538;48.146;11.740;2023-09-07T14:49:19;25.70;62.70
73683;DHT22;72538;48.146;11.740;2023-09-07T14:51:46;25.60;59.90
73683;DHT22;72538;48.146;11.740;2023-09-07T14:54:12;25.50;60.00
73683;DHT22;72538;48.146;11.740;2023-09-07T14:56:38;25.40;59.20
73683;DHT22;72538;48.146;11.740;2023-09-07T14:59:05;25.40;59.90
73683;DHT22;72538;48.146;11.740;2023-09-07T15:01:32;25.40;59.30
73683;DHT22;72538;48.146;11.740;2023-09-07T15:03:58;25.40;59.10
73683;DHT22;72538;48.146;11.740;2023-09-07T15:06:24;25.50;59.70
73683;DHT22;72538;48.146;11.740;2023-09-07T15:08:49;25.50;60.00
73683;DHT22;72538;48.146;11.740;2023-09-07T15:11:16;25.50;58.40
73683;DHT22;72538;48.146;11.740;2023-09-07T15:13:41;25.40;57.20